sensor_id;sensor_type;location;lat;lon;timestamp;P1;durP1;ratioP1;P2;durP2;ratioP2
5195;SDS011;2617;51.006;12.436;2023-02-28T00:02:49;2.80;;;2.60;;
5195;SDS011;2617;51.006;12.436;2023-02-28T00:07:52;2.30;;;2.20;;
5195;SDS011;2617;51.006;12.436;2023-02-28T00:12:55;4.73;;;2.93;;
5195;SDS011;2617;51.006;12.436;2023-02-28T00:17:57;3.60;;;2.83;;
5195;SDS011;2617;51.006;12.436;2023-02-28T00:23:00;2.50;;;2.30;;
5195;SDS011;2617;51.006;12.436;2023-02-28T00:28:03;2.67;;;2.43;;
5195;SDS011;2617;51.006;12.436;2023-02-28T00:33:06;3.23;;;3.03;;
5195;SDS011;2617;51.006;12.436;2023-02-28T00:38:08;2.50;;;2.30;;
5195;SDS011;2617;51.006;12.436;2023-02-28T00:43:11;4.67;;;2.50;;
5195;SDS011;2617;51.006;12.436;2023-02-28T00:48:14;2.38;;;2.12;;
5195;SDS011;2617;51.006;12.436;2023-02-28T00:53:17;3.93;;;2.60;;
5195;SDS011;2617;51.006;12.436;2023-02-28T00:58:20;2.72;;;2.12;;
5195;SDS011;2617;51.006;12.436;2023-02-28T01:03:23;2.33;;;2.13;;
5195;SDS011;2617;51.006;12.436;2023-02-28T01:08:25;2.83;;;2.30;;
5195;SDS011;2617;51.006;12.436;2023-02-28T01:13:28;2.03;;;1.92;;
5195;SDS011;2617;51.006;12.436;2023-02-28T01:18:31;3.43;;;2.10;;
5195;SDS011;2617;51.006;12.436;2023-02-28T01:23:33;2.70;;;2.03;;
5195;SDS011;2617;51.006;12.436;2023-02-28T01:28:35;6.70;;;2.33;;
5195;SDS011;2617;51.006;12.436;2023-02-28T01:33:39;2.30;;;2.10;;
5195;SDS011;2617;51.006;12.436;2023-02-28T01:38:42;3.25;;;2.08;;
5195;SDS011;2617;51.006;12.436;2023-02-28T01:43:55;2.42;;;2.25;;
5195;SDS011;2617;51.006;12.436;2023-02-28T01:49:06;2.20;;;2.00;;
5195;SDS011;2617;51.006;12.436;2023-02-28T01:54:11;4.53;;;2.27;;
5195;SDS011;2617;51.006;12.436;2023-02-28T01:59:14;5.43;;;1.97;;
5195;SDS011;2617;51.006;12.436;2023-02-28T02:04:16;2.57;;;2.37;;
5195;SDS011;2617;51.006;12.436;2023-02-28T02:09:18;2.10;;;1.90;;
5195;SDS011;2617;51.006;12.436;2023-02-28T02:14:31;1.87;;;1.73;;
5195;SDS011;2617;51.006;12.436;2023-02-28T02:19:44;1.97;;;1.73;;
5195;SDS011;2617;51.006;12.436;2023-02-28T02:35:47;3.22;;;2.42;;
5195;SDS011;2617;51.006;12.436;2023-02-28T02:40:59;2.70;;;2.20;;
5195;SDS011;2617;51.006;12.436;2023-02-28T02:46:07;4.30;;;2.13;;
5195;SDS011;2617;51.006;12.436;2023-02-28T02:51:11;3.13;;;2.30;;
5195;SDS011;2617;51.006;12.436;2023-02-28T02:56:13;2.30;;;2.20;;
5195;SDS011;2617;51.006;12.436;2023-02-28T03:01:19;1.92;;;1.78;;
5195;SDS011;2617;51.006;12.436;2023-02-28T03:06:21;3.85;;;2.17;;
5195;SDS011;2617;51.006;12.436;2023-02-28T03:11:24;2.50;;;2.30;;
5195;SDS011;2617;51.006;12.436;2023-02-28T03:16:29;2.70;;;2.40;;
5195;SDS011;2617;51.006;12.436;2023-02-28T03:21:34;2.57;;;1.83;;
5195;SDS011;2617;51.006;12.436;2023-02-28T03:27:06;3.60;;;3.23;;
5195;SDS011;2617;51.006;12.436;2023-02-28T03:32:10;4.15;;;2.70;;
5195;SDS011;2617;51.006;12.436;2023-02-28T03:37:23;2.80;;;2.60;;
5195;SDS011;2617;51.006;12.436;2023-02-28T03:42:27;3.77;;;2.70;;
5195;SDS011;2617;51.006;12.436;2023-02-28T03:47:31;2.57;;;2.20;;
5195;SDS011;2617;51.006;12.436;2023-02-28T03:52:39;4.00;;;2.30;;
5195;SDS011;2617;51.006;12.436;2023-02-28T03:57:47;5.10;;;2.67;;
5195;SDS011;2617;51.006;12.436;2023-02-28T04:02:52;2.30;;;2.10;;
5195;SDS011;2617;51.006;12.436;2023-02-28T04:08:02;5.20;;;2.13;;
5195;SDS011;2617;51.006;12.436;2023-02-28T04:13:12;6.30;;;3.23;;
5195;SDS011;2617;51.006;12.436;2023-02-28T04:18:14;4.67;;;2.80;;
5195;SDS011;2617;51.006;12.436;2023-02-28T04:23:18;2.15;;;2.05;;
5195;SDS011;2617;51.006;12.436;2023-02-28T04:28:21;2.90;;;2.63;;
5195;SDS011;2617;51.006;12.436;2023-02-28T04:33:27;3.40;;;2.27;;
5195;SDS011;2617;51.006;12.436;2023-02-28T04:38:32;2.05;;;1.95;;
5195;SDS011;2617;51.006;12.436;2023-02-28T04:43:34;2.60;;;2.40;;
5195;SDS011;2617;51.006;12.436;2023-02-28T04:48:37;3.07;;;2.77;;
5195;SDS011;2617;51.006;12.436;2023-02-28T04:53:39;3.50;;;2.90;;
5195;SDS011;2617;51.006;12.436;2023-02-28T04:58:41;3.70;;;2.40;;
5195;SDS011;2617;51.006;12.436;2023-02-28T05:03:43;3.00;;;2.80;;
5195;SDS011;2617;51.006;12.436;2023-02-28T05:08:47;4.05;;;2.37;;
5195;SDS011;2617;51.006;12.436;2023-02-28T05:13:50;2.63;;;2.43;;
5195;SDS011;2617;51.006;12.436;2023-02-28T05:18:53;4.43;;;2.60;;
5195;SDS011;2617;51.006;12.436;2023-02-28T05:23:56;3.43;;;2.37;;
5195;SDS011;2617;51.006;12.436;2023-02-28T05:28:58;9.93;;;4.63;;
5195;SDS011;2617;51.006;12.436;2023-02-28T05:34:00;12.00;;;6.20;;
5195;SDS011;2617;51.006;12.436;2023-02-28T05:39:05;14.38;;;6.12;;
5195;SDS011;2617;51.006;12.436;2023-02-28T05:44:07;6.90;;;4.70;;
5195;SDS011;2617;51.006;12.436;2023-02-28T05:49:09;10.43;;;5.37;;
5195;SDS011;2617;51.006;12.436;2023-02-28T05:54:12;5.77;;;3.30;;
5195;SDS011;2617;51.006;12.436;2023-02-28T05:59:15;11.18;;;6.45;;
5195;SDS011;2617;51.006;12.436;2023-02-28T06:04:19;8.57;;;5.82;;
5195;SDS011;2617;51.006;12.436;2023-02-28T06:09:21;10.97;;;6.40;;
5195;SDS011;2617;51.006;12.436;2023-02-28T06:14:25;9.63;;;6.03;;
5195;SDS011;2617;51.006;12.436;2023-02-28T06:19:28;8.83;;;6.20;;
5195;SDS011;2617;51.006;12.436;2023-02-28T06:24:30;5.90;;;4.17;;
5195;SDS011;2617;51.006;12.436;2023-02-28T06:29:34;7.53;;;3.60;;
5195;SDS011;2617;51.006;12.436;2023-02-28T06:34:37;7.80;;;4.80;;
5195;SDS011;2617;51.006;12.436;2023-02-28T06:39:39;2.73;;;2.47;;
5195;SDS011;2617;51.006;12.436;2023-02-28T06:44:41;2.63;;;1.97;;
5195;SDS011;2617;51.006;12.436;2023-02-28T06:49:44;2.93;;;2.67;;
5195;SDS011;2617;51.006;12.436;2023-02-28T06:54:46;5.07;;;2.27;;
5195;SDS011;2617;51.006;12.436;2023-02-28T06:59:50;2.72;;;2.20;;
5195;SDS011;2617;51.006;12.436;2023-02-28T07:04:52;7.90;;;3.40;;
5195;SDS011;2617;51.006;12.436;2023-02-28T07:09:55;6.45;;;2.90;;
5195;SDS011;2617;51.006;12.436;2023-02-28T07:14:59;5.00;;;3.27;;
5195;SDS011;2617;51.006;12.436;2023-02-28T07:20:02;5.77;;;3.70;;
5195;SDS011;2617;51.006;12.436;2023-02-28T07:25:06;6.40;;;3.60;;
5195;SDS011;2617;51.006;12.436;2023-02-28T07:30:10;3.83;;;3.27;;
5195;SDS011;2617;51.006;12.436;2023-02-28T07:35:13;5.20;;;3.90;;
5195;SDS011;2617;51.006;12.436;2023-02-28T07:40:16;6.37;;;4.00;;
5195;SDS011;2617;51.006;12.436;2023-02-28T07:45:20;6.50;;;3.53;;
5195;SDS011;2617;51.006;12.436;2023-02-28T07:50:22;3.42;;;3.12;;
5195;SDS011;2617;51.006;12.436;2023-02-28T07:55:25;10.45;;;3.03;;
5195;SDS011;2617;51.006;12.436;2023-02-28T08:00:29;4.93;;;3.00;;
5195;SDS011;2617;51.006;12.436;2023-02-28T08:05:31;10.13;;;3.20;;
5195;SDS011;2617;51.006;12.436;2023-02-28T08:10:34;7.57;;;3.40;;
5195;SDS011;2617;51.006;12.436;2023-02-28T08:15:37;3.40;;;3.10;;
5195;SDS011;2617;51.006;12.436;2023-02-28T08:20:40;5.40;;;3.10;;
5195;SDS011;2617;51.006;12.436;2023-02-28T08:25:42;8.23;;;3.40;;
5195;SDS011;2617;51.006;12.436;2023-02-28T08:30:45;4.90;;;2.92;;
5195;SDS011;2617;51.006;12.436;2023-02-28T08:35:48;3.43;;;3.13;;
5195;SDS011;2617;51.006;12.436;2023-02-28T08:40:57;11.85;;;3.42;;
5195;SDS011;2617;51.006;12.436;2023-02-28T08:45:59;5.07;;;3.60;;
5195;SDS011;2617;51.006;12.436;2023-02-28T08:51:02;6.30;;;4.93;;
5195;SDS011;2617;51.006;12.436;2023-02-28T08:56:06;12.40;;;3.37;;
5195;SDS011;2617;51.006;12.436;2023-02-28T09:01:09;5.60;;;3.40;;
5195;SDS011;2617;51.006;12.436;2023-02-28T09:06:12;8.23;;;3.63;;
5195;SDS011;2617;51.006;12.436;2023-02-28T09:11:14;5.10;;;3.33;;
5195;SDS011;2617;51.006;12.436;2023-02-28T09:16:16;5.40;;;3.53;;
5195;SDS011;2617;51.006;12.436;2023-02-28T09:21:20;7.10;;;3.00;;
5195;SDS011;2617;51.006;12.436;2023-02-28T09:26:24;7.83;;;3.23;;
5195;SDS011;2617;51.006;12.436;2023-02-28T09:31:26;3.77;;;2.80;;
5195;SDS011;2617;51.006;12.436;2023-02-28T09:36:28;3.87;;;3.40;;
5195;SDS011;2617;51.006;12.436;2023-02-28T09:41:34;3.87;;;3.10;;
5195;SDS011;2617;51.006;12.436;2023-02-28T09:46:37;4.77;;;3.67;;
5195;SDS011;2617;51.006;12.436;2023-02-28T09:51:42;4.33;;;3.10;;
5195;SDS011;2617;51.006;12.436;2023-02-28T09:56:56;8.17;;;4.47;;
5195;SDS011;2617;51.006;12.436;2023-02-28T10:02:04;5.53;;;3.70;;
5195;SDS011;2617;51.006;12.436;2023-02-28T10:12:41;4.53;;;3.55;;
5195;SDS011;2617;51.006;12.436;2023-02-28T10:17:44;6.87;;;3.47;;
5195;SDS011;2617;51.006;12.436;2023-02-28T10:22:52;7.68;;;3.58;;
5195;SDS011;2617;51.006;12.436;2023-02-28T10:27:58;4.63;;;3.03;;
5195;SDS011;2617;51.006;12.436;2023-02-28T10:33:01;5.90;;;3.20;;
5195;SDS011;2617;51.006;12.436;2023-02-28T10:38:05;3.33;;;2.75;;
5195;SDS011;2617;51.006;12.436;2023-02-28T10:43:20;4.00;;;3.00;;
5195;SDS011;2617;51.006;12.436;2023-02-28T10:48:26;8.27;;;3.77;;
5195;SDS011;2617;51.006;12.436;2023-02-28T10:53:35;4.87;;;3.22;;
5195;SDS011;2617;51.006;12.436;2023-02-28T10:58:46;3.80;;;3.03;;
5195;SDS011;2617;51.006;12.436;2023-02-28T11:03:50;4.13;;;3.27;;
5195;SDS011;2617;51.006;12.436;2023-02-28T11:08:54;7.92;;;3.60;;
5195;SDS011;2617;51.006;12.436;2023-02-28T11:14:03;5.27;;;3.97;;
5195;SDS011;2617;51.006;12.436;2023-02-28T11:19:06;4.97;;;3.53;;
5195;SDS011;2617;51.006;12.436;2023-02-28T11:24:15;6.85;;;4.43;;
5195;SDS011;2617;51.006;12.436;2023-02-28T11:29:31;5.90;;;4.30;;
5195;SDS011;2617;51.006;12.436;2023-02-28T11:34:33;6.90;;;4.90;;
5195;SDS011;2617;51.006;12.436;2023-02-28T11:39:35;5.40;;;4.03;;
5195;SDS011;2617;51.006;12.436;2023-02-28T11:55:44;5.73;;;3.97;;
5195;SDS011;2617;51.006;12.436;2023-02-28T12:06:20;6.90;;;4.27;;
5195;SDS011;2617;51.006;12.436;2023-02-28T12:11:26;4.57;;;4.13;;
5195;SDS011;2617;51.006;12.436;2023-02-28T12:16:40;6.97;;;5.25;;
5195;SDS011;2617;51.006;12.436;2023-02-28T12:27:22;5.40;;;4.40;;
5195;SDS011;2617;51.006;12.436;2023-02-28T12:32:27;6.47;;;4.80;;
5195;SDS011;2617;51.006;12.436;2023-02-28T12:37:31;13.02;;;5.40;;
5195;SDS011;2617;51.006;12.436;2023-02-28T12:42:40;6.67;;;4.80;;
5195;SDS011;2617;51.006;12.436;2023-02-28T12:48:01;8.15;;;5.07;;
5195;SDS011;2617;51.006;12.436;2023-02-28T12:53:03;5.67;;;4.83;;
5195;SDS011;2617;51.006;12.436;2023-02-28T12:58:13;8.67;;;4.53;;
5195;SDS011;2617;51.006;12.436;2023-02-28T13:03:29;8.23;;;4.60;;
5195;SDS011;2617;51.006;12.436;2023-02-28T13:08:48;9.80;;;5.10;;
5195;SDS011;2617;51.006;12.436;2023-02-28T13:19:21;10.33;;;6.10;;
5195;SDS011;2617;51.006;12.436;2023-02-28T13:29:40;13.90;;;5.50;;
5195;SDS011;2617;51.006;12.436;2023-02-28T13:35:11;6.17;;;4.93;;
5195;SDS011;2617;51.006;12.436;2023-02-28T13:45:28;4.63;;;3.80;;
5195;SDS011;2617;51.006;12.436;2023-02-28T13:55:45;9.32;;;5.82;;
5195;SDS011;2617;51.006;12.436;2023-02-28T14:01:14;6.90;;;4.70;;
5195;SDS011;2617;51.006;12.436;2023-02-28T14:06:18;5.33;;;4.83;;
5195;SDS011;2617;51.006;12.436;2023-02-28T14:11:30;8.13;;;5.33;;
5195;SDS011;2617;51.006;12.436;2023-02-28T14:16:36;6.70;;;4.67;;
5195;SDS011;2617;51.006;12.436;2023-02-28T14:21:51;6.53;;;5.93;;
5195;SDS011;2617;51.006;12.436;2023-02-28T14:27:08;6.03;;;5.00;;
5195;SDS011;2617;51.006;12.436;2023-02-28T14:37:43;11.23;;;5.67;;
5195;SDS011;2617;51.006;12.436;2023-02-28T14:42:47;9.00;;;5.47;;
5195;SDS011;2617;51.006;12.436;2023-02-28T14:47:50;8.60;;;5.90;;
5195;SDS011;2617;51.006;12.436;2023-02-28T14:52:53;7.23;;;4.37;;
5195;SDS011;2617;51.006;12.436;2023-02-28T14:57:57;11.25;;;6.07;;
5195;SDS011;2617;51.006;12.436;2023-02-28T15:02:59;10.90;;;6.23;;
5195;SDS011;2617;51.006;12.436;2023-02-28T15:08:04;11.83;;;5.60;;
5195;SDS011;2617;51.006;12.436;2023-02-28T15:13:10;10.10;;;6.30;;
5195;SDS011;2617;51.006;12.436;2023-02-28T15:18:14;9.80;;;5.17;;
5195;SDS011;2617;51.006;12.436;2023-02-28T15:23:16;9.63;;;6.20;;
5195;SDS011;2617;51.006;12.436;2023-02-28T15:28:20;10.40;;;5.80;;
5195;SDS011;2617;51.006;12.436;2023-02-28T15:33:23;7.70;;;5.30;;
5195;SDS011;2617;51.006;12.436;2023-02-28T15:38:27;9.30;;;5.90;;
5195;SDS011;2617;51.006;12.436;2023-02-28T15:43:31;10.77;;;6.37;;
5195;SDS011;2617;51.006;12.436;2023-02-28T15:53:58;8.53;;;6.10;;
5195;SDS011;2617;51.006;12.436;2023-02-28T15:58:59;11.37;;;6.27;;
5195;SDS011;2617;51.006;12.436;2023-02-28T16:04:04;7.23;;;5.60;;
5195;SDS011;2617;51.006;12.436;2023-02-28T16:09:08;8.93;;;6.20;;
5195;SDS011;2617;51.006;12.436;2023-02-28T16:14:14;8.40;;;6.20;;
5195;SDS011;2617;51.006;12.436;2023-02-28T16:19:15;9.17;;;6.53;;
5195;SDS011;2617;51.006;12.436;2023-02-28T16:24:17;13.20;;;6.83;;
5195;SDS011;2617;51.006;12.436;2023-02-28T16:29:24;7.63;;;6.20;;
5195;SDS011;2617;51.006;12.436;2023-02-28T16:34:28;11.82;;;7.50;;
5195;SDS011;2617;51.006;12.436;2023-02-28T16:39:31;10.03;;;6.37;;
5195;SDS011;2617;51.006;12.436;2023-02-28T16:44:34;9.52;;;6.25;;
5195;SDS011;2617;51.006;12.436;2023-02-28T16:49:37;12.77;;;8.02;;
5195;SDS011;2617;51.006;12.436;2023-02-28T16:54:39;10.23;;;6.60;;
5195;SDS011;2617;51.006;12.436;2023-02-28T16:59:41;8.88;;;6.37;;
5195;SDS011;2617;51.006;12.436;2023-02-28T17:04:44;7.85;;;6.43;;
5195;SDS011;2617;51.006;12.436;2023-02-28T17:09:47;20.10;;;5.57;;
5195;SDS011;2617;51.006;12.436;2023-02-28T17:14:50;9.00;;;5.90;;
5195;SDS011;2617;51.006;12.436;2023-02-28T17:19:52;10.50;;;7.00;;
5195;SDS011;2617;51.006;12.436;2023-02-28T17:24:54;9.97;;;7.30;;
5195;SDS011;2617;51.006;12.436;2023-02-28T17:29:58;9.02;;;6.78;;
5195;SDS011;2617;51.006;12.436;2023-02-28T17:35:01;11.23;;;7.43;;
5195;SDS011;2617;51.006;12.436;2023-02-28T17:40:04;18.98;;;6.62;;
5195;SDS011;2617;51.006;12.436;2023-02-28T17:45:09;23.43;;;7.80;;
5195;SDS011;2617;51.006;12.436;2023-02-28T17:50:12;14.23;;;8.20;;
5195;SDS011;2617;51.006;12.436;2023-02-28T17:55:15;20.30;;;9.40;;
5195;SDS011;2617;51.006;12.436;2023-02-28T18:00:17;21.83;;;11.00;;
5195;SDS011;2617;51.006;12.436;2023-02-28T18:05:20;19.95;;;9.15;;
5195;SDS011;2617;51.006;12.436;2023-02-28T18:10:23;16.83;;;9.77;;
5195;SDS011;2617;51.006;12.436;2023-02-28T18:15:27;12.63;;;8.47;;
5195;SDS011;2617;51.006;12.436;2023-02-28T18:20:31;12.90;;;8.33;;
5195;SDS011;2617;51.006;12.436;2023-02-28T18:25:34;13.50;;;7.45;;
5195;SDS011;2617;51.006;12.436;2023-02-28T18:30:36;29.43;;;19.20;;
5195;SDS011;2617;51.006;12.436;2023-02-28T18:35:39;20.50;;;10.87;;
5195;SDS011;2617;51.006;12.436;2023-02-28T18:40:41;19.40;;;8.13;;
5195;SDS011;2617;51.006;12.436;2023-02-28T18:45:44;11.47;;;7.47;;
5195;SDS011;2617;51.006;12.436;2023-02-28T18:50:48;11.10;;;7.77;;
5195;SDS011;2617;51.006;12.436;2023-02-28T18:55:51;13.80;;;7.85;;
5195;SDS011;2617;51.006;12.436;2023-02-28T19:00:53;16.02;;;7.75;;
5195;SDS011;2617;51.006;12.436;2023-02-28T19:05:56;15.77;;;9.00;;
5195;SDS011;2617;51.006;12.436;2023-02-28T19:11:05;16.60;;;9.26;;
5195;SDS011;2617;51.006;12.436;2023-02-28T19:16:18;16.05;;;9.30;;
5195;SDS011;2617;51.006;12.436;2023-02-28T19:21:21;15.10;;;9.03;;
5195;SDS011;2617;51.006;12.436;2023-02-28T19:26:23;20.70;;;9.30;;
5195;SDS011;2617;51.006;12.436;2023-02-28T19:31:25;17.50;;;10.30;;
5195;SDS011;2617;51.006;12.436;2023-02-28T19:36:28;19.63;;;10.03;;
5195;SDS011;2617;51.006;12.436;2023-02-28T19:41:30;15.40;;;9.03;;
5195;SDS011;2617;51.006;12.436;2023-02-28T19:46:33;14.73;;;8.87;;
5195;SDS011;2617;51.006;12.436;2023-02-28T19:51:35;16.60;;;8.80;;
5195;SDS011;2617;51.006;12.436;2023-02-28T19:56:38;13.77;;;8.83;;
5195;SDS011;2617;51.006;12.436;2023-02-28T20:01:40;15.40;;;9.07;;
5195;SDS011;2617;51.006;12.436;2023-02-28T20:06:42;13.83;;;8.30;;
5195;SDS011;2617;51.006;12.436;2023-02-28T20:11:45;14.07;;;8.40;;
5195;SDS011;2617;51.006;12.436;2023-02-28T20:16:47;14.47;;;8.80;;
5195;SDS011;2617;51.006;12.436;2023-02-28T20:21:50;15.07;;;8.10;;
5195;SDS011;2617;51.006;12.436;2023-02-28T20:26:52;15.40;;;9.23;;
5195;SDS011;2617;51.006;12.436;2023-02-28T20:31:56;16.37;;;10.37;;
5195;SDS011;2617;51.006;12.436;2023-02-28T20:36:58;17.80;;;9.10;;
5195;SDS011;2617;51.006;12.436;2023-02-28T20:42:01;16.73;;;9.63;;
5195;SDS011;2617;51.006;12.436;2023-02-28T20:47:04;14.13;;;8.73;;
5195;SDS011;2617;51.006;12.436;2023-02-28T20:52:07;16.77;;;8.50;;
5195;SDS011;2617;51.006;12.436;2023-02-28T20:57:10;17.77;;;8.90;;
5195;SDS011;2617;51.006;12.436;2023-02-28T21:02:14;17.67;;;8.10;;
5195;SDS011;2617;51.006;12.436;2023-02-28T21:07:14;14.57;;;8.67;;
5195;SDS011;2617;51.006;12.436;2023-02-28T21:12:17;18.13;;;9.67;;
5195;SDS011;2617;51.006;12.436;2023-02-28T21:17:19;16.70;;;8.60;;
5195;SDS011;2617;51.006;12.436;2023-02-28T21:22:22;16.50;;;10.17;;
5195;SDS011;2617;51.006;12.436;2023-02-28T21:27:24;17.03;;;9.57;;
5195;SDS011;2617;51.006;12.436;2023-02-28T21:32:26;19.57;;;10.37;;
5195;SDS011;2617;51.006;12.436;2023-02-28T21:37:29;16.50;;;9.07;;
5195;SDS011;2617;51.006;12.436;2023-02-28T21:42:32;15.48;;;9.18;;
5195;SDS011;2617;51.006;12.436;2023-02-28T21:47:35;15.57;;;9.17;;
5195;SDS011;2617;51.006;12.436;2023-02-28T21:52:37;17.40;;;9.53;;
5195;SDS011;2617;51.006;12.436;2023-02-28T21:57:41;14.63;;;9.13;;
5195;SDS011;2617;51.006;12.436;2023-02-28T22:02:43;12.70;;;7.63;;
5195;SDS011;2617;51.006;12.436;2023-02-28T22:07:45;17.17;;;9.13;;
5195;SDS011;2617;51.006;12.436;2023-02-28T22:12:48;17.70;;;9.77;;
5195;SDS011;2617;51.006;12.436;2023-02-28T22:17:50;15.87;;;8.30;;
5195;SDS011;2617;51.006;12.436;2023-02-28T22:22:53;17.37;;;9.10;;
5195;SDS011;2617;51.006;12.436;2023-02-28T22:27:55;16.10;;;8.20;;
5195;SDS011;2617;51.006;12.436;2023-02-28T22:32:57;16.77;;;9.10;;
5195;SDS011;2617;51.006;12.436;2023-02-28T22:38:01;15.45;;;8.98;;
5195;SDS011;2617;51.006;12.436;2023-02-28T22:43:04;15.57;;;8.77;;
5195;SDS011;2617;51.006;12.436;2023-02-28T22:48:07;18.73;;;9.57;;
5195;SDS011;2617;51.006;12.436;2023-02-28T22:53:09;15.57;;;9.60;;
5195;SDS011;2617;51.006;12.436;2023-02-28T22:58:11;16.33;;;10.00;;
5195;SDS011;2617;51.006;12.436;2023-02-28T23:03:13;14.90;;;9.30;;
5195;SDS011;2617;51.006;12.436;2023-02-28T23:08:16;14.97;;;8.77;;
5195;SDS011;2617;51.006;12.436;2023-02-28T23:13:19;16.37;;;9.33;;
5195;SDS011;2617;51.006;12.436;2023-02-28T23:18:22;14.23;;;8.47;;
5195;SDS011;2617;51.006;12.436;2023-02-28T23:23:25;18.73;;;9.53;;
5195;SDS011;2617;51.006;12.436;2023-02-28T23:28:27;19.33;;;11.40;;
5195;SDS011;2617;51.006;12.436;2023-02-28T23:33:30;16.43;;;10.53;;
5195;SDS011;2617;51.006;12.436;2023-02-28T23:38:33;17.15;;;10.20;;
5195;SDS011;2617;51.006;12.436;2023-02-28T23:43:35;19.83;;;10.20;;
5195;SDS011;2617;51.006;12.436;2023-02-28T23:48:38;20.43;;;11.57;;
5195;SDS011;2617;51.006;12.436;2023-02-28T23:53:41;19.75;;;11.75;;
5195;SDS011;2617;51.006;12.436;2023-02-28T23:58:44;15.43;;;9.00;;
